createdAt,value
2024-05-09T00:00:17.000Z,97.73
2024-05-09T00:01:20.000Z,97.83
2024-05-09T00:02:24.000Z,97.94
2024-05-09T00:03:28.000Z,97.83
2024-05-09T00:04:32.000Z,97.83
2024-05-09T00:05:35.000Z,97.83
2024-05-09T00:06:39.000Z,97.73
2024-05-09T00:07:43.000Z,97.83
2024-05-09T00:08:47.000Z,98.03
2024-05-09T00:09:51.000Z,98.35
2024-05-09T00:10:54.000Z,98.45
2024-05-09T00:11:58.000Z,98.55
2024-05-09T00:13:02.000Z,98.55
2024-05-09T00:14:06.000Z,98.55
2024-05-09T00:15:09.000Z,98.55
2024-05-09T00:16:13.000Z,98.55
2024-05-09T00:17:17.000Z,98.45
2024-05-09T00:18:21.000Z,98.45
2024-05-09T00:19:24.000Z,98.55
2024-05-09T00:20:28.000Z,98.86
2024-05-09T00:21:32.000Z,99.17
2024-05-09T00:22:36.000Z,99.17
2024-05-09T00:23:40.000Z,99.17
2024-05-09T00:24:43.000Z,99.17
2024-05-09T00:25:47.000Z,99.27
2024-05-09T00:26:51.000Z,99.17
2024-05-09T00:27:55.000Z,99.13
2024-05-09T00:28:59.000Z,99.02
2024-05-09T00:30:03.000Z,99.02
2024-05-09T00:31:06.000Z,98.92
2024-05-09T00:32:10.000Z,98.92
2024-05-09T00:33:14.000Z,98.92
2024-05-09T00:34:17.000Z,98.92
2024-05-09T00:35:21.000Z,98.77
2024-05-09T00:36:25.000Z,98.88
2024-05-09T00:37:29.000Z,98.88
2024-05-09T00:38:32.000Z,98.97
2024-05-09T00:39:36.000Z,98.97
2024-05-09T00:40:40.000Z,98.97
2024-05-09T00:41:44.000Z,98.97
2024-05-09T00:42:48.000Z,98.83
2024-05-09T00:43:52.000Z,98.67
2024-05-09T00:44:55.000Z,98.46
2024-05-09T00:45:59.000Z,98.42
2024-05-09T00:47:03.000Z,98.52
2024-05-09T00:48:06.000Z,98.62
2024-05-09T00:49:10.000Z,98.52
2024-05-09T00:50:14.000Z,98.52
2024-05-09T00:51:18.000Z,98.52
2024-05-09T00:52:22.000Z,98.72
2024-05-09T00:53:25.000Z,98.83
2024-05-09T00:54:29.000Z,98.83
2024-05-09T00:55:33.000Z,98.83
2024-05-09T00:56:37.000Z,98.93
2024-05-09T00:57:41.000Z,98.83
2024-05-09T00:58:44.000Z,98.72
2024-05-09T00:59:48.000Z,98.62
2024-05-09T01:00:52.000Z,98.72
2024-05-09T01:01:56.000Z,98.83
2024-05-09T01:03:00.000Z,98.83
2024-05-09T01:04:03.000Z,98.93
2024-05-09T01:05:07.000Z,99.24
2024-05-09T01:06:11.000Z,99.76
2024-05-09T01:07:14.000Z,99.96
2024-05-09T01:08:18.000Z,99.99
2024-05-09T01:09:22.000Z,99.99
2024-05-09T01:10:26.000Z,99.99
2024-05-09T01:11:30.000Z,99.86
2024-05-09T01:12:33.000Z,99.76
2024-05-09T01:13:37.000Z,99.65
2024-05-09T01:14:41.000Z,99.65
2024-05-09T01:15:45.000Z,99.86
2024-05-09T01:16:49.000Z,99.96
2024-05-09T01:17:52.000Z,99.99
2024-05-09T01:18:56.000Z,99.99
2024-05-09T01:20:00.000Z,99.99
2024-05-09T01:21:04.000Z,99.99
2024-05-09T01:22:08.000Z,99.99
2024-05-09T01:23:11.000Z,99.9
2024-05-09T01:24:15.000Z,99.8
2024-05-09T01:25:19.000Z,99.99
2024-05-09T01:26:22.000Z,99.99
2024-05-09T01:27:26.000Z,99.99
2024-05-09T01:28:30.000Z,99.99
2024-05-09T01:29:34.000Z,99.99
2024-05-09T01:30:37.000Z,99.99
2024-05-09T01:31:41.000Z,99.99
2024-05-09T01:32:45.000Z,99.99
2024-05-09T01:33:49.000Z,99.99
2024-05-09T01:34:53.000Z,99.99
2024-05-09T01:35:57.000Z,99.99
2024-05-09T01:37:00.000Z,99.99
2024-05-09T01:38:04.000Z,99.99
2024-05-09T01:39:08.000Z,99.99
2024-05-09T01:40:12.000Z,99.99
2024-05-09T01:41:16.000Z,99.99
2024-05-09T01:42:19.000Z,99.99
2024-05-09T01:43:23.000Z,99.99
2024-05-09T01:44:27.000Z,99.99
2024-05-09T01:45:31.000Z,99.99
2024-05-09T01:46:34.000Z,99.99
2024-05-09T01:47:38.000Z,99.99
2024-05-09T01:48:42.000Z,99.99
2024-05-09T01:49:46.000Z,99.99
2024-05-09T01:50:49.000Z,99.99
2024-05-09T01:51:53.000Z,99.99
2024-05-09T01:52:57.000Z,99.99
2024-05-09T01:54:01.000Z,99.99
2024-05-09T01:55:04.000Z,99.99
2024-05-09T01:56:08.000Z,99.99
2024-05-09T01:57:12.000Z,99.99
2024-05-09T01:58:16.000Z,99.99
2024-05-09T01:59:20.000Z,99.99
2024-05-09T02:00:23.000Z,99.99
2024-05-09T02:01:27.000Z,99.99
2024-05-09T02:02:31.000Z,99.99
2024-05-09T02:03:35.000Z,99.99
2024-05-09T02:04:39.000Z,99.99
2024-05-09T02:05:42.000Z,99.99
2024-05-09T02:06:46.000Z,99.99
2024-05-09T02:07:50.000Z,99.99
2024-05-09T02:08:54.000Z,99.99
2024-05-09T02:09:58.000Z,99.99
2024-05-09T02:11:01.000Z,99.99
2024-05-09T02:12:05.000Z,99.99
2024-05-09T02:13:09.000Z,99.99
2024-05-09T02:14:13.000Z,99.99
2024-05-09T02:15:17.000Z,99.99
2024-05-09T02:16:20.000Z,99.99
2024-05-09T02:17:24.000Z,99.99
2024-05-09T02:18:28.000Z,99.99
2024-05-09T02:19:32.000Z,99.99
2024-05-09T02:20:36.000Z,99.99
2024-05-09T02:21:39.000Z,99.99
2024-05-09T02:22:43.000Z,99.99
2024-05-09T02:23:47.000Z,99.99
2024-05-09T02:24:51.000Z,99.99
2024-05-09T02:25:54.000Z,99.99
2024-05-09T02:26:58.000Z,99.99
2024-05-09T02:28:02.000Z,99.99
2024-05-09T02:29:06.000Z,99.99
2024-05-09T02:30:10.000Z,99.99
2024-05-09T02:31:14.000Z,99.99
2024-05-09T02:32:17.000Z,99.99
2024-05-09T02:33:21.000Z,99.99
2024-05-09T02:34:25.000Z,99.99
2024-05-09T02:35:29.000Z,99.99
2024-05-09T02:36:33.000Z,99.99
2024-05-09T02:37:36.000Z,99.99
2024-05-09T02:38:40.000Z,99.99
2024-05-09T02:39:44.000Z,99.99
2024-05-09T02:40:47.000Z,99.99
2024-05-09T02:41:51.000Z,99.99
2024-05-09T02:42:55.000Z,99.99
2024-05-09T02:43:59.000Z,99.99
2024-05-09T02:45:03.000Z,99.99
2024-05-09T02:46:07.000Z,99.99
2024-05-09T02:47:10.000Z,99.99
2024-05-09T02:48:14.000Z,99.99
2024-05-09T02:49:18.000Z,99.99
2024-05-09T02:50:22.000Z,99.99
2024-05-09T02:51:26.000Z,99.99
2024-05-09T02:52:29.000Z,99.99
2024-05-09T02:53:33.000Z,99.99
2024-05-09T02:54:37.000Z,99.99
2024-05-09T02:55:41.000Z,99.99
2024-05-09T02:56:44.000Z,99.99
2024-05-09T02:57:48.000Z,99.99
2024-05-09T02:58:52.000Z,99.99
2024-05-09T02:59:56.000Z,99.99
2024-05-09T03:01:00.000Z,99.99
2024-05-09T03:02:03.000Z,99.99
2024-05-09T03:03:07.000Z,99.99
2024-05-09T03:04:11.000Z,99.99
2024-05-09T03:05:15.000Z,99.99
2024-05-09T03:06:19.000Z,99.99
2024-05-09T03:07:23.000Z,99.99
2024-05-09T03:08:26.000Z,99.99
2024-05-09T03:09:30.000Z,99.99
2024-05-09T03:10:34.000Z,99.99
2024-05-09T03:11:38.000Z,99.99
2024-05-09T03:12:41.000Z,99.99
2024-05-09T03:13:45.000Z,99.99
2024-05-09T03:14:49.000Z,99.99
2024-05-09T03:15:53.000Z,99.99
2024-05-09T03:16:56.000Z,99.99
2024-05-09T03:18:00.000Z,99.99
2024-05-09T03:19:04.000Z,99.99
2024-05-09T03:20:08.000Z,99.99
2024-05-09T03:21:12.000Z,99.99
2024-05-09T03:22:15.000Z,99.99
2024-05-09T03:23:19.000Z,99.99
2024-05-09T03:24:23.000Z,99.99
2024-05-09T03:25:27.000Z,99.99
2024-05-09T03:26:30.000Z,99.99
2024-05-09T03:27:34.000Z,99.99
2024-05-09T03:28:38.000Z,99.99
2024-05-09T03:29:42.000Z,99.99
2024-05-09T03:30:45.000Z,99.99
2024-05-09T03:31:49.000Z,99.99
2024-05-09T03:32:53.000Z,99.99
2024-05-09T03:33:57.000Z,99.99
2024-05-09T03:35:01.000Z,99.99
2024-05-09T03:36:04.000Z,99.99
2024-05-09T03:37:08.000Z,99.99
2024-05-09T03:38:12.000Z,99.99
2024-05-09T03:39:16.000Z,99.99
2024-05-09T03:40:20.000Z,99.99
2024-05-09T03:41:23.000Z,99.99
2024-05-09T03:42:27.000Z,99.99
2024-05-09T03:43:31.000Z,99.99
2024-05-09T03:44:35.000Z,99.99
2024-05-09T03:45:38.000Z,99.99
2024-05-09T03:46:42.000Z,99.99
2024-05-09T03:47:46.000Z,99.99
2024-05-09T03:48:50.000Z,99.99
2024-05-09T03:49:53.000Z,99.99
2024-05-09T03:50:57.000Z,99.99
2024-05-09T03:52:01.000Z,99.99
2024-05-09T03:53:05.000Z,99.99
2024-05-09T03:54:09.000Z,99.99
2024-05-09T03:55:12.000Z,99.99
2024-05-09T03:56:16.000Z,99.99
2024-05-09T03:57:20.000Z,99.99
2024-05-09T03:58:24.000Z,99.99
2024-05-09T03:59:28.000Z,99.99
2024-05-09T04:00:31.000Z,99.99
2024-05-09T04:01:35.000Z,99.99
2024-05-09T04:02:39.000Z,99.99
2024-05-09T04:03:43.000Z,99.99
2024-05-09T04:04:47.000Z,99.99
2024-05-09T04:05:50.000Z,99.99
2024-05-09T04:06:54.000Z,99.99
2024-05-09T04:07:58.000Z,99.99
2024-05-09T04:09:02.000Z,99.99
2024-05-09T04:10:05.000Z,99.99
2024-05-09T04:11:09.000Z,99.99
2024-05-09T04:12:13.000Z,99.99
2024-05-09T04:13:17.000Z,99.99
2024-05-09T04:14:21.000Z,99.99
2024-05-09T04:15:25.000Z,99.99
2024-05-09T04:16:28.000Z,99.99
2024-05-09T04:17:32.000Z,99.99
2024-05-09T04:18:36.000Z,99.99
2024-05-09T04:19:40.000Z,99.99
2024-05-09T04:20:44.000Z,99.99
2024-05-09T04:21:47.000Z,99.99
2024-05-09T04:22:51.000Z,99.99
2024-05-09T04:23:55.000Z,99.99
2024-05-09T04:24:59.000Z,99.99
2024-05-09T04:26:02.000Z,99.99
2024-05-09T04:27:06.000Z,99.99
2024-05-09T04:28:10.000Z,99.77
2024-05-09T04:29:14.000Z,99.57
2024-05-09T04:30:17.000Z,99.47
2024-05-09T04:31:21.000Z,99.16
2024-05-09T04:32:25.000Z,98.96
2024-05-09T04:33:29.000Z,98.85
2024-05-09T04:34:32.000Z,98.75
2024-05-09T04:35:36.000Z,98.65
2024-05-09T04:36:40.000Z,98.24
2024-05-09T04:37:44.000Z,98.03
2024-05-09T04:38:47.000Z,98.03
2024-05-09T04:39:51.000Z,98.03
2024-05-09T04:40:55.000Z,98.03
2024-05-09T04:41:59.000Z,97.92
2024-05-09T04:43:02.000Z,97.88
2024-05-09T04:44:06.000Z,97.78
2024-05-09T04:45:10.000Z,97.57
2024-05-09T04:46:14.000Z,97.47
2024-05-09T04:47:17.000Z,97.37
2024-05-09T04:48:21.000Z,97.06
2024-05-09T04:49:25.000Z,96.85
2024-05-09T04:50:29.000Z,96.65
2024-05-09T04:51:33.000Z,97.06
2024-05-09T04:52:36.000Z,97.62
2024-05-09T04:53:40.000Z,98.65
2024-05-09T04:54:44.000Z,99.31
2024-05-09T04:55:48.000Z,99.41
2024-05-09T04:56:52.000Z,99.37
2024-05-09T04:57:55.000Z,99.26
2024-05-09T04:58:59.000Z,99.16
2024-05-09T05:00:03.000Z,98.91
2024-05-09T05:01:07.000Z,98.8
2024-05-09T05:02:10.000Z,98.5
2024-05-09T05:03:14.000Z,98.29
2024-05-09T05:04:18.000Z,98.08
2024-05-09T05:05:22.000Z,97.47
2024-05-09T05:06:26.000Z,97.82
2024-05-09T05:07:29.000Z,98.75
2024-05-09T05:08:33.000Z,99.1
2024-05-09T05:09:37.000Z,99.51
2024-05-09T05:10:41.000Z,99.57
2024-05-09T05:11:45.000Z,99.47
2024-05-09T05:12:48.000Z,99.16
2024-05-09T05:13:52.000Z,98.91
2024-05-09T05:14:56.000Z,98.7
2024-05-09T05:16:00.000Z,98.6
2024-05-09T05:17:04.000Z,98.29
2024-05-09T05:18:07.000Z,98.04
2024-05-09T05:19:11.000Z,97.94
2024-05-09T05:20:15.000Z,97.53
2024-05-09T05:21:18.000Z,97.02
2024-05-09T05:22:22.000Z,96.77
2024-05-09T05:23:26.000Z,96.56
2024-05-09T05:24:30.000Z,96.35
2024-05-09T05:25:34.000Z,96.1
2024-05-09T05:26:37.000Z,95.9
2024-05-09T05:27:41.000Z,95.79
2024-05-09T05:28:45.000Z,95.69
2024-05-09T05:29:49.000Z,95.54
2024-05-09T05:30:52.000Z,95.24
2024-05-09T05:31:56.000Z,95.03
2024-05-09T05:33:00.000Z,94.83
2024-05-09T05:34:04.000Z,94.62
2024-05-09T05:35:08.000Z,94.58
2024-05-09T05:36:11.000Z,94.68
2024-05-09T05:37:15.000Z,94.68
2024-05-09T05:38:19.000Z,94.48
2024-05-09T05:39:23.000Z,94.07
2024-05-09T05:40:26.000Z,93.96
2024-05-09T05:41:30.000Z,93.71
2024-05-09T05:42:34.000Z,93.62
2024-05-09T05:43:38.000Z,93.62
2024-05-09T05:44:42.000Z,92.94
2024-05-09T05:45:45.000Z,93.15
2024-05-09T05:46:49.000Z,93.35
2024-05-09T05:47:53.000Z,93.55
2024-05-09T05:48:57.000Z,93.45
2024-05-09T05:50:00.000Z,93.55
2024-05-09T05:51:04.000Z,93.62
2024-05-09T05:52:08.000Z,93.71
2024-05-09T05:53:12.000Z,93.82
2024-05-09T05:54:15.000Z,93.82
2024-05-09T05:55:19.000Z,93.82
2024-05-09T05:56:23.000Z,93.71
2024-05-09T05:57:27.000Z,93.62
2024-05-09T05:58:31.000Z,93.71
2024-05-09T05:59:34.000Z,93.82
2024-05-09T06:00:38.000Z,93.92
2024-05-09T06:01:42.000Z,94.02
2024-05-09T06:02:46.000Z,94.12
2024-05-09T06:03:50.000Z,94.23
2024-05-09T06:04:53.000Z,94.23
2024-05-09T06:05:57.000Z,94.18
2024-05-09T06:07:01.000Z,94.18
2024-05-09T06:08:05.000Z,94.08
2024-05-09T06:09:09.000Z,93.98
2024-05-09T06:10:12.000Z,93.73
2024-05-09T06:11:16.000Z,93.63
2024-05-09T06:12:20.000Z,93.63
2024-05-09T06:13:24.000Z,93.84
2024-05-09T06:14:27.000Z,94.14
2024-05-09T06:15:31.000Z,94.1
2024-05-09T06:16:35.000Z,93.99
2024-05-09T06:17:39.000Z,93.69
2024-05-09T06:18:43.000Z,92.93
2024-05-09T06:19:46.000Z,92.83
2024-05-09T06:20:50.000Z,92.58
2024-05-09T06:21:54.000Z,92.07
2024-05-09T06:22:58.000Z,91.52
2024-05-09T06:24:02.000Z,91.11
2024-05-09T06:25:05.000Z,91.41
2024-05-09T06:26:09.000Z,91.72
2024-05-09T06:27:13.000Z,91.67
2024-05-09T06:28:17.000Z,91.16
2024-05-09T06:29:21.000Z,90.51
2024-05-09T06:30:24.000Z,90.41
2024-05-09T06:31:28.000Z,90.16
2024-05-09T06:32:32.000Z,89.86
2024-05-09T06:33:36.000Z,89.4
2024-05-09T06:34:39.000Z,88.9
2024-05-09T06:35:43.000Z,88.49
2024-05-09T06:36:47.000Z,88.24
2024-05-09T06:37:51.000Z,88.04
2024-05-09T06:38:55.000Z,87.53
2024-05-09T06:39:58.000Z,87.12
2024-05-09T06:41:02.000Z,87.32
2024-05-09T06:42:06.000Z,87.12
2024-05-09T06:43:10.000Z,87.32
2024-05-09T06:44:13.000Z,87.53
2024-05-09T06:45:17.000Z,87.53
2024-05-09T06:46:21.000Z,87.63
2024-05-09T06:47:25.000Z,87.32
2024-05-09T06:48:28.000Z,87.12
2024-05-09T06:49:32.000Z,86.92
2024-05-09T06:50:36.000Z,86.92
2024-05-09T06:51:40.000Z,87.73
2024-05-09T06:52:44.000Z,88.04
2024-05-09T06:53:47.000Z,87.94
2024-05-09T06:54:51.000Z,88.04
2024-05-09T06:55:55.000Z,87.84
2024-05-09T06:56:59.000Z,87.94
2024-05-09T06:58:03.000Z,87.73
2024-05-09T06:59:06.000Z,87.73
2024-05-09T07:00:10.000Z,87.73
2024-05-09T07:01:14.000Z,87.73
2024-05-09T07:02:18.000Z,87.94
2024-05-09T07:03:21.000Z,88.24
2024-05-09T07:04:25.000Z,88.24
2024-05-09T07:05:29.000Z,88.14
2024-05-09T07:06:33.000Z,88.14
2024-05-09T07:07:36.000Z,88.24
2024-05-09T07:08:40.000Z,88.65
2024-05-09T07:09:44.000Z,88.55
2024-05-09T07:10:48.000Z,88.65
2024-05-09T07:11:52.000Z,88.75
2024-05-09T07:12:55.000Z,88.96
2024-05-09T07:13:59.000Z,88.96
2024-05-09T07:15:03.000Z,88.96
2024-05-09T07:16:07.000Z,88.96
2024-05-09T07:17:10.000Z,88.65
2024-05-09T07:18:14.000Z,88.24
2024-05-09T07:19:18.000Z,88.34
2024-05-09T07:20:22.000Z,88.65
2024-05-09T07:21:26.000Z,88.85
2024-05-09T07:22:29.000Z,89.36
2024-05-09T07:23:33.000Z,89.97
2024-05-09T07:24:37.000Z,89.94
2024-05-09T07:25:41.000Z,90.14
2024-05-09T07:26:45.000Z,90.14
2024-05-09T07:27:48.000Z,90.24
2024-05-09T07:28:52.000Z,90.24
2024-05-09T07:29:56.000Z,89.42
2024-05-09T07:31:00.000Z,89.59
2024-05-09T07:32:04.000Z,89.07
2024-05-09T07:33:07.000Z,89.18
2024-05-09T07:34:11.000Z,89.18
2024-05-09T07:35:15.000Z,89.18
2024-05-09T07:36:19.000Z,88.87
2024-05-09T07:37:22.000Z,88.32
2024-05-09T07:38:26.000Z,87.51
2024-05-09T07:39:30.000Z,87.3
2024-05-09T07:40:34.000Z,87.41
2024-05-09T07:41:37.000Z,87.1
2024-05-09T07:41:37.000Z,87.1
2024-05-09T07:42:41.000Z,87.81
2024-05-09T07:42:41.000Z,87.81
2024-05-09T07:43:45.000Z,87.92
2024-05-09T07:43:45.000Z,87.92
2024-05-09T07:44:49.000Z,86.86
2024-05-09T07:44:49.000Z,86.86
2024-05-09T07:45:53.000Z,86.35
2024-05-09T07:45:53.000Z,86.35
2024-05-09T07:46:56.000Z,85.13
2024-05-09T07:46:56.000Z,85.13
2024-05-09T07:48:00.000Z,84.62
2024-05-09T07:48:00.000Z,84.62
2024-05-09T07:49:04.000Z,84.82
2024-05-09T07:49:04.000Z,84.82
2024-05-09T07:50:08.000Z,84.17
2024-05-09T07:50:08.000Z,84.17
2024-05-09T07:51:12.000Z,81.84
2024-05-09T07:52:15.000Z,81.93
2024-05-09T07:53:19.000Z,79.56
2024-05-09T07:54:23.000Z,78.85
2024-05-09T07:55:27.000Z,78.91
2024-05-09T07:56:31.000Z,79.93
2024-05-09T07:57:34.000Z,78.61
2024-05-09T07:58:38.000Z,78.1
2024-05-09T07:59:42.000Z,80.19
2024-05-09T08:00:46.000Z,79.28
2024-05-09T08:01:49.000Z,80.8
2024-05-09T08:02:53.000Z,79.49
2024-05-09T08:03:57.000Z,78.78
2024-05-09T08:05:01.000Z,78.44
2024-05-09T08:06:05.000Z,78.33
2024-05-09T08:07:08.000Z,76.27
2024-05-09T08:08:12.000Z,76.47
2024-05-09T08:09:16.000Z,77.08
2024-05-09T08:10:20.000Z,77.48
2024-05-09T08:11:23.000Z,78.26
2024-05-09T08:12:27.000Z,79.38
2024-05-09T08:13:31.000Z,79.74
2024-05-09T08:14:34.000Z,79.71
2024-05-09T08:15:38.000Z,75.85
2024-05-09T08:16:42.000Z,76.77
2024-05-09T08:17:46.000Z,76.77
2024-05-09T08:18:50.000Z,73.83
2024-05-09T08:19:53.000Z,75.21
2024-05-09T08:20:57.000Z,69.74
2024-05-09T08:22:01.000Z,69.27
2024-05-09T08:23:05.000Z,71.91
2024-05-09T08:24:09.000Z,68.97
2024-05-09T08:25:12.000Z,70.29
2024-05-09T08:26:16.000Z,71.77
2024-05-09T08:27:20.000Z,72.28
2024-05-09T08:28:24.000Z,68.6
2024-05-09T08:29:27.000Z,68.1
2024-05-09T08:30:31.000Z,70.02
2024-05-09T08:31:35.000Z,73.83
2024-05-09T08:32:39.000Z,72.61
2024-05-09T08:33:42.000Z,70.69
2024-05-09T08:34:46.000Z,68.57
2024-05-09T08:35:50.000Z,69.27
2024-05-09T08:36:54.000Z,70.86
2024-05-09T08:37:58.000Z,71.03
2024-05-09T08:39:01.000Z,69.31
2024-05-09T08:40:05.000Z,71.1
2024-05-09T08:41:09.000Z,68.98
2024-05-09T08:42:13.000Z,64.84
2024-05-09T08:43:17.000Z,68.37
2024-05-09T08:44:20.000Z,68.44
2024-05-09T08:45:24.000Z,67.73
2024-05-09T08:46:28.000Z,64.0
2024-05-09T08:47:32.000Z,63.62
2024-05-09T08:48:35.000Z,64.13
2024-05-09T08:49:39.000Z,66.38
2024-05-09T08:50:43.000Z,65.37
2024-05-09T08:51:47.000Z,63.15
2024-05-09T08:52:50.000Z,63.96
2024-05-09T08:53:54.000Z,64.84
2024-05-09T08:54:58.000Z,67.9
2024-05-09T08:56:02.000Z,63.46
2024-05-09T08:57:06.000Z,63.36
2024-05-09T08:58:09.000Z,65.75
2024-05-09T08:59:13.000Z,59.2
2024-05-09T09:00:17.000Z,59.7
2024-05-09T09:01:21.000Z,63.4
2024-05-09T09:02:25.000Z,66.6
2024-05-09T09:03:28.000Z,62.37
2024-05-09T09:04:32.000Z,64.25
2024-05-09T09:05:36.000Z,67.14
2024-05-09T09:06:40.000Z,64.89
2024-05-09T09:07:43.000Z,64.16
2024-05-09T09:08:47.000Z,61.94
2024-05-09T09:09:51.000Z,60.53
2024-05-09T09:10:55.000Z,56.24
2024-05-09T09:11:59.000Z,59.19
2024-05-09T09:13:02.000Z,56.4
2024-05-09T09:14:06.000Z,56.22
2024-05-09T09:15:10.000Z,55.31
2024-05-09T09:16:14.000Z,57.2
2024-05-09T09:17:18.000Z,56.09
2024-05-09T09:18:22.000Z,57.12
2024-05-09T09:19:25.000Z,60.32
2024-05-09T09:20:29.000Z,57.76
2024-05-09T09:21:33.000Z,59.57
2024-05-09T09:22:37.000Z,55.97
2024-05-09T09:23:41.000Z,56.55
2024-05-09T09:24:44.000Z,55.69
2024-05-09T09:25:48.000Z,53.5
2024-05-09T09:26:52.000Z,54.68
2024-05-09T09:27:56.000Z,58.61
2024-05-09T09:28:59.000Z,57.53
2024-05-09T09:30:03.000Z,59.37
2024-05-09T09:31:07.000Z,59.3
2024-05-09T09:32:11.000Z,59.83
2024-05-09T09:33:14.000Z,61.92
2024-05-09T09:34:18.000Z,60.21
2024-05-09T09:35:22.000Z,60.0
2024-05-09T09:36:26.000Z,59.57
2024-05-09T09:37:30.000Z,63.3
2024-05-09T09:38:34.000Z,62.29
2024-05-09T09:39:37.000Z,63.3
2024-05-09T09:40:41.000Z,64.21
2024-05-09T09:41:45.000Z,65.72
2024-05-09T09:42:49.000Z,64.95
2024-05-09T09:43:52.000Z,65.29
2024-05-09T09:44:56.000Z,63.14
2024-05-09T09:46:00.000Z,57.45
2024-05-09T09:47:04.000Z,60.84
2024-05-09T09:48:07.000Z,60.61
2024-05-09T09:49:11.000Z,58.37
2024-05-09T09:50:15.000Z,58.27
2024-05-09T09:51:19.000Z,54.65
2024-05-09T09:52:22.000Z,58.77
2024-05-09T09:53:26.000Z,62.26
2024-05-09T09:54:30.000Z,54.93
2024-05-09T09:55:34.000Z,53.25
2024-05-09T09:56:38.000Z,55.88
2024-05-09T09:57:42.000Z,53.27
2024-05-09T09:58:45.000Z,51.36
2024-05-09T09:59:49.000Z,53.25
2024-05-09T10:00:53.000Z,49.33
2024-05-09T10:01:56.000Z,53.65
2024-05-09T10:03:00.000Z,51.54
2024-05-09T10:04:04.000Z,52.97
2024-05-09T10:05:08.000Z,52.74
2024-05-09T10:06:11.000Z,51.94
2024-05-09T10:07:15.000Z,49.53
2024-05-09T10:08:19.000Z,52.14
2024-05-09T10:09:23.000Z,55.2
2024-05-09T10:10:27.000Z,58.29
2024-05-09T10:11:30.000Z,50.13
2024-05-09T10:12:34.000Z,52.97
2024-05-09T10:13:38.000Z,51.31
2024-05-09T10:14:42.000Z,54.5
2024-05-09T10:15:45.000Z,55.31
2024-05-09T10:16:49.000Z,49.37
2024-05-09T10:17:53.000Z,52.31
2024-05-09T10:18:57.000Z,52.97
2024-05-09T10:20:01.000Z,55.55
2024-05-09T10:21:04.000Z,50.31
2024-05-09T10:22:08.000Z,53.0
2024-05-09T10:23:12.000Z,50.51
2024-05-09T10:24:16.000Z,52.42
2024-05-09T10:25:20.000Z,49.08
2024-05-09T10:26:23.000Z,51.59
2024-05-09T10:27:27.000Z,51.74
2024-05-09T10:28:31.000Z,48.43
2024-05-09T10:29:35.000Z,49.71
2024-05-09T10:30:38.000Z,51.49
2024-05-09T10:31:42.000Z,55.17
2024-05-09T10:32:46.000Z,48.64
2024-05-09T10:33:50.000Z,49.44
2024-05-09T10:34:54.000Z,53.44
2024-05-09T10:35:57.000Z,50.04
2024-05-09T10:37:01.000Z,47.86
2024-05-09T10:38:05.000Z,49.79
2024-05-09T10:39:09.000Z,49.23
2024-05-09T10:40:12.000Z,49.84
2024-05-09T10:41:16.000Z,49.71
2024-05-09T10:42:20.000Z,48.38
2024-05-09T10:43:24.000Z,50.41
2024-05-09T10:44:28.000Z,53.2
2024-05-09T10:45:31.000Z,51.97
2024-05-09T10:46:35.000Z,52.55
2024-05-09T10:47:39.000Z,50.04
2024-05-09T10:48:43.000Z,51.32
2024-05-09T10:49:47.000Z,53.82
2024-05-09T10:50:50.000Z,50.49
2024-05-09T10:51:54.000Z,46.86
2024-05-09T10:52:58.000Z,50.87
2024-05-09T10:54:02.000Z,52.42
2024-05-09T10:55:05.000Z,48.49
2024-05-09T10:56:09.000Z,45.0
2024-05-09T10:57:13.000Z,50.82
2024-05-09T10:58:17.000Z,49.4
2024-05-09T10:59:20.000Z,49.52
2024-05-09T11:00:24.000Z,47.34
2024-05-09T11:01:28.000Z,48.14
2024-05-09T11:02:32.000Z,49.11
2024-05-09T11:03:36.000Z,48.69
2024-05-09T11:04:40.000Z,52.12
2024-05-09T11:05:44.000Z,50.44
2024-05-09T11:06:47.000Z,48.88
2024-05-09T11:07:51.000Z,52.42
2024-05-09T11:08:55.000Z,50.81
2024-05-09T11:09:59.000Z,51.39
2024-05-09T11:11:03.000Z,52.57
2024-05-09T11:12:06.000Z,50.44
2024-05-09T11:13:10.000Z,52.64
2024-05-09T11:14:14.000Z,50.24
2024-05-09T11:15:18.000Z,52.84
2024-05-09T11:16:21.000Z,50.92
2024-05-09T11:17:25.000Z,47.88
2024-05-09T11:18:29.000Z,47.69
2024-05-09T11:19:33.000Z,47.88
2024-05-09T11:20:36.000Z,48.58
2024-05-09T11:21:40.000Z,49.76
2024-05-09T11:22:44.000Z,47.56
2024-05-09T11:23:48.000Z,49.11
2024-05-09T11:24:51.000Z,51.87
2024-05-09T11:25:55.000Z,51.62
2024-05-09T11:26:59.000Z,52.39
2024-05-09T11:28:03.000Z,52.07
2024-05-09T11:29:07.000Z,49.53
2024-05-09T11:30:10.000Z,49.7
2024-05-09T11:31:14.000Z,47.14
2024-05-09T11:32:18.000Z,44.01
2024-05-09T11:33:22.000Z,46.19
2024-05-09T11:34:26.000Z,48.22
2024-05-09T11:35:29.000Z,52.39
2024-05-09T11:36:33.000Z,50.37
2024-05-09T11:37:37.000Z,55.71
2024-05-09T11:38:41.000Z,50.6
2024-05-09T11:39:45.000Z,46.83
2024-05-09T11:40:48.000Z,46.95
2024-05-09T11:41:52.000Z,45.5
2024-05-09T11:42:56.000Z,46.92
2024-05-09T11:44:00.000Z,48.22
2024-05-09T11:45:03.000Z,48.9
2024-05-09T11:46:07.000Z,48.22
2024-05-09T11:47:11.000Z,50.17
2024-05-09T11:48:15.000Z,49.82
2024-05-09T11:49:19.000Z,46.01
2024-05-09T11:50:22.000Z,46.85
2024-05-09T11:51:26.000Z,45.05
2024-05-09T11:52:30.000Z,46.75
2024-05-09T11:53:34.000Z,46.25
2024-05-09T11:54:37.000Z,50.9
2024-05-09T11:55:41.000Z,48.2
2024-05-09T11:56:45.000Z,47.13
2024-05-09T11:57:49.000Z,51.87
2024-05-09T11:58:52.000Z,50.32
2024-05-09T11:59:56.000Z,43.87
2024-05-09T12:01:00.000Z,44.27
2024-05-09T12:02:04.000Z,46.11
2024-05-09T12:03:08.000Z,47.53
2024-05-09T12:04:11.000Z,48.9
2024-05-09T12:05:15.000Z,46.41
2024-05-09T12:06:19.000Z,46.58
2024-05-09T12:07:23.000Z,47.56
2024-05-09T12:08:27.000Z,47.24
2024-05-09T12:09:30.000Z,50.27
2024-05-09T12:10:34.000Z,45.18
2024-05-09T12:11:38.000Z,47.34
2024-05-09T12:12:42.000Z,48.22
2024-05-09T12:13:46.000Z,46.9
2024-05-09T12:14:49.000Z,47.97
2024-05-09T12:15:53.000Z,46.66
2024-05-09T12:16:57.000Z,41.34
2024-05-09T12:18:01.000Z,42.53
2024-05-09T12:19:05.000Z,46.09
2024-05-09T12:20:08.000Z,44.57
2024-05-09T12:21:12.000Z,46.24
2024-05-09T12:22:16.000Z,48.55
2024-05-09T12:23:20.000Z,50.62
2024-05-09T12:24:24.000Z,42.53
2024-05-09T12:25:28.000Z,48.85
2024-05-09T12:26:31.000Z,48.38
2024-05-09T12:27:35.000Z,47.78
2024-05-09T12:28:39.000Z,44.71
2024-05-09T12:29:43.000Z,48.0
2024-05-09T12:30:46.000Z,47.08
2024-05-09T12:31:50.000Z,44.71
2024-05-09T12:32:54.000Z,47.4
2024-05-09T12:33:58.000Z,49.3
2024-05-09T12:35:01.000Z,46.5
2024-05-09T12:36:05.000Z,48.2
2024-05-09T12:37:09.000Z,48.65
2024-05-09T12:38:13.000Z,47.85
2024-05-09T12:39:17.000Z,49.2
2024-05-09T12:40:20.000Z,47.8
2024-05-09T12:41:24.000Z,48.78
2024-05-09T12:42:28.000Z,47.26
2024-05-09T12:43:32.000Z,43.99
2024-05-09T12:44:35.000Z,43.13
2024-05-09T12:45:39.000Z,46.43
2024-05-09T12:46:43.000Z,48.78
2024-05-09T12:47:47.000Z,50.92
2024-05-09T12:48:51.000Z,51.47
2024-05-09T12:49:54.000Z,49.13
2024-05-09T12:50:58.000Z,45.97
2024-05-09T12:52:02.000Z,43.17
2024-05-09T12:53:06.000Z,47.55
2024-05-09T12:54:10.000Z,46.35
2024-05-09T12:55:13.000Z,45.95
2024-05-09T12:56:17.000Z,49.32
2024-05-09T12:57:21.000Z,48.8
2024-05-09T12:58:25.000Z,51.87
2024-05-09T12:59:28.000Z,51.75
2024-05-09T13:00:32.000Z,48.46
2024-05-09T13:01:36.000Z,47.28
2024-05-09T13:02:40.000Z,45.57
2024-05-09T13:03:44.000Z,47.87
2024-05-09T13:04:47.000Z,47.45
2024-05-09T13:05:51.000Z,46.75
2024-05-09T13:06:55.000Z,47.25
2024-05-09T13:07:59.000Z,49.0
2024-05-09T13:09:02.000Z,45.51
2024-05-09T13:10:06.000Z,46.92
2024-05-09T13:11:10.000Z,51.32
2024-05-09T13:12:14.000Z,48.43
2024-05-09T13:13:17.000Z,54.49
2024-05-09T13:14:21.000Z,51.25
2024-05-09T13:15:25.000Z,48.16
2024-05-09T13:16:29.000Z,45.13
2024-05-09T13:17:32.000Z,48.82
2024-05-09T13:18:36.000Z,49.25
2024-05-09T13:19:40.000Z,50.35
2024-05-09T13:20:44.000Z,48.65
2024-05-09T13:21:48.000Z,50.07
2024-05-09T13:22:51.000Z,48.79
2024-05-09T13:23:55.000Z,48.69
2024-05-09T13:24:59.000Z,51.34
2024-05-09T13:26:03.000Z,50.67
2024-05-09T13:27:06.000Z,48.55
2024-05-09T13:28:10.000Z,44.87
2024-05-09T13:29:14.000Z,47.98
2024-05-09T13:30:18.000Z,47.88
2024-05-09T13:31:22.000Z,48.05
2024-05-09T13:32:25.000Z,45.78
2024-05-09T13:33:29.000Z,45.63